createdAt,value
2018-04-25T00:00:44.494Z,0.00
2018-04-25T00:01:44.355Z,0.00
2018-04-25T00:03:37.097Z,0.00
2018-04-25T00:04:37.012Z,0.00
2018-04-25T00:06:29.768Z,0.00
2018-04-25T00:07:29.656Z,0.00
2018-04-25T00:09:22.428Z,0.00
2018-04-25T00:10:22.322Z,0.00
2018-04-25T00:12:15.059Z,0.00
2018-04-25T00:13:14.950Z,0.00
2018-04-25T00:15:07.729Z,0.00
2018-04-25T00:16:07.600Z,0.00
2018-04-25T00:18:00.361Z,0.00
2018-04-25T00:19:00.245Z,0.00
2018-04-25T00:20:56.456Z,0.00
2018-04-25T00:21:56.458Z,0.00
2018-04-25T00:23:49.832Z,0.00
2018-04-25T00:24:49.762Z,0.00
2018-04-25T00:26:42.593Z,0.00
2018-04-25T00:27:42.488Z,0.00
2018-04-25T00:29:35.227Z,0.00
2018-04-25T00:30:35.133Z,0.00
2018-04-25T00:32:28.411Z,0.00
2018-04-25T00:33:28.286Z,0.00
2018-04-25T00:35:21.145Z,0.00
2018-04-25T00:36:21.038Z,0.00
2018-04-25T00:38:13.801Z,0.00
2018-04-25T00:39:13.719Z,0.00
2018-04-25T00:41:06.545Z,0.00
2018-04-25T00:42:06.344Z,0.00
2018-04-25T00:43:59.187Z,0.00
2018-04-25T00:44:59.091Z,0.00
2018-04-25T00:46:51.928Z,0.00
2018-04-25T00:47:51.834Z,0.00
2018-04-25T00:49:44.707Z,0.00
2018-04-25T00:50:44.601Z,0.00
2018-04-25T00:52:37.343Z,0.00
2018-04-25T00:53:37.235Z,0.00
2018-04-25T00:55:29.988Z,0.00
2018-04-25T00:56:29.873Z,0.00
2018-04-25T00:58:22.625Z,0.00
2018-04-25T00:59:22.527Z,0.00
2018-04-25T01:01:15.909Z,0.00
2018-04-25T01:02:15.179Z,0.00
2018-04-25T01:04:07.944Z,8.40
2018-04-25T01:05:07.844Z,10.79
2018-04-25T01:07:00.676Z,15.67
2018-04-25T01:08:00.627Z,22.26
2018-04-25T01:09:53.446Z,21.02
2018-04-25T01:10:53.314Z,26.85
2018-04-25T01:12:46.157Z,31.45
2018-04-25T01:13:46.063Z,37.19
2018-04-25T01:15:38.866Z,40.15
2018-04-25T01:16:38.807Z,42.35
2018-04-25T01:18:31.558Z,43.59
2018-04-25T01:19:31.465Z,43.69
2018-04-25T01:21:24.220Z,48.21
2018-04-25T01:22:24.112Z,46.39
2018-04-25T01:24:16.951Z,51.07
2018-04-25T01:25:16.870Z,51.17
2018-04-25T01:27:09.621Z,47.73
2018-04-25T01:28:09.523Z,45.43
2018-04-25T01:30:02.255Z,46.58
2018-04-25T01:31:02.151Z,46.30
2018-04-25T01:32:54.948Z,45.12
2018-04-25T01:33:54.828Z,40.75
2018-04-25T01:35:47.545Z,50.57
2018-04-25T01:36:47.480Z,48.30
2018-04-25T01:38:40.208Z,48.49
2018-04-25T01:39:40.095Z,50.50
2018-04-25T01:41:32.965Z,46.67
2018-04-25T01:42:32.847Z,46.77
2018-04-25T01:44:25.792Z,46.20
2018-04-25T01:45:25.618Z,47.92
2018-04-25T01:47:18.465Z,50.41
2018-04-25T01:48:18.344Z,53.94
2018-04-25T01:50:11.119Z,51.84
2018-04-25T01:51:10.990Z,51.75
2018-04-25T01:53:04.787Z,53.66
2018-04-25T01:54:04.669Z,52.99
2018-04-25T01:55:57.521Z,50.70
2018-04-25T01:56:57.418Z,51.07
2018-04-25T01:58:50.252Z,52.22
2018-04-25T01:59:50.156Z,52.03
2018-04-25T02:01:43.611Z,56.82
2018-04-25T02:02:43.433Z,55.29
2018-04-25T02:04:36.164Z,52.89
2018-04-25T02:05:36.083Z,51.84
2018-04-25T02:07:28.947Z,52.03
2018-04-25T02:08:28.823Z,54.68
2018-04-25T02:10:21.573Z,53.56
2018-04-25T02:11:21.474Z,49.74
2018-04-25T02:13:14.248Z,52.96
2018-04-25T02:14:14.125Z,55.64
2018-04-25T02:16:06.967Z,55.45
2018-04-25T02:17:06.863Z,54.11
2018-04-25T02:18:59.728Z,55.45
2018-04-25T02:19:59.615Z,53.63
2018-04-25T02:21:52.457Z,53.82
2018-04-25T02:22:52.381Z,54.11
2018-04-25T02:24:45.143Z,52.48
2018-04-25T02:25:45.025Z,52.48
2018-04-25T02:27:37.850Z,49.52
2018-04-25T02:28:37.776Z,52.58
2018-04-25T02:30:30.548Z,53.16
2018-04-25T02:31:30.410Z,54.88
2018-04-25T02:33:23.261Z,55.74
2018-04-25T02:34:23.155Z,57.55
2018-04-25T02:36:16.024Z,54.97
2018-04-25T02:37:15.909Z,54.59
2018-04-25T02:39:09.416Z,56.40
2018-04-25T02:40:09.272Z,55.93
2018-04-25T02:42:02.071Z,54.02
2018-04-25T02:43:01.947Z,53.53
2018-04-25T02:44:54.766Z,53.82
2018-04-25T02:45:54.712Z,55.07
2018-04-25T02:47:47.542Z,57.17
2018-04-25T02:48:47.315Z,57.07
2018-04-25T02:50:40.174Z,59.69
2018-04-25T02:51:40.209Z,60.33
2018-04-25T02:53:33.068Z,63.99
2018-04-25T02:54:32.825Z,63.03
2018-04-25T02:56:26.132Z,65.04
2018-04-25T02:57:25.975Z,65.14
2018-04-25T02:59:19.352Z,65.33
2018-04-25T03:00:18.745Z,67.63
2018-04-25T03:02:11.604Z,66.47
2018-04-25T03:03:11.483Z,66.67
2018-04-25T03:05:04.337Z,70.59
2018-04-25T03:06:04.138Z,69.73
2018-04-25T03:07:56.992Z,72.54
2018-04-25T03:08:56.867Z,71.20
2018-04-25T03:10:49.709Z,71.48
2018-04-25T03:11:49.612Z,71.01
2018-04-25T03:13:42.999Z,72.83
2018-04-25T03:14:42.493Z,74.45
2018-04-25T03:16:35.338Z,74.26
2018-04-25T03:17:35.246Z,73.50
2018-04-25T03:19:28.088Z,75.12
2018-04-25T03:20:27.973Z,75.02
2018-04-25T03:22:20.815Z,75.31
2018-04-25T03:23:20.720Z,75.31
2018-04-25T03:25:13.596Z,77.33
2018-04-25T03:26:13.477Z,76.56
2018-04-25T03:28:06.430Z,77.80
2018-04-25T03:29:06.322Z,77.42
2018-04-25T03:30:59.292Z,77.70
2018-04-25T03:31:59.171Z,78.57
2018-04-25T03:33:52.573Z,79.52
2018-04-25T03:34:52.435Z,78.28
2018-04-25T03:36:45.300Z,79.81
2018-04-25T03:37:45.181Z,79.72
2018-04-25T03:39:38.059Z,79.62
2018-04-25T03:40:37.935Z,78.28
2018-04-25T03:42:30.922Z,80.29
2018-04-25T03:43:30.870Z,79.62
2018-04-25T03:45:23.795Z,80.96
2018-04-25T03:46:23.575Z,82.01
2018-04-25T03:48:16.495Z,83.26
2018-04-25T03:49:16.404Z,80.29
2018-04-25T03:51:09.262Z,81.25
2018-04-25T03:52:09.130Z,82.97
2018-04-25T03:54:02.126Z,80.96
2018-04-25T03:55:01.983Z,82.40
2018-04-25T03:56:54.775Z,81.82
2018-04-25T03:57:54.665Z,82.01
2018-04-25T03:59:47.469Z,83.54
2018-04-25T04:00:47.376Z,82.59
2018-04-25T04:02:40.271Z,83.54
2018-04-25T04:03:40.200Z,83.93
2018-04-25T04:05:32.878Z,85.08
2018-04-25T04:06:32.809Z,82.78
2018-04-25T04:08:25.637Z,84.02
2018-04-25T04:09:25.576Z,83.26
2018-04-25T04:11:18.292Z,84.22
2018-04-25T04:12:18.211Z,86.90
2018-04-25T04:14:11.062Z,86.32
2018-04-25T04:15:10.945Z,88.43
2018-04-25T04:17:03.674Z,87.66
2018-04-25T04:18:03.580Z,87.47
2018-04-25T04:19:56.363Z,87.76
2018-04-25T04:20:56.237Z,88.43
2018-04-25T04:22:48.975Z,87.85
2018-04-25T04:23:48.872Z,87.56
2018-04-25T04:25:41.727Z,87.56
2018-04-25T04:26:41.623Z,87.47
2018-04-25T04:28:34.372Z,87.66
2018-04-25T04:29:34.268Z,86.99
2018-04-25T04:31:27.217Z,85.75
2018-04-25T04:32:27.120Z,85.55
2018-04-25T04:34:19.869Z,85.17
2018-04-25T04:35:19.857Z,89.00
2018-04-25T04:37:12.520Z,88.71
2018-04-25T04:38:12.425Z,89.58
2018-04-25T04:40:05.199Z,88.52
2018-04-25T04:41:05.070Z,89.38
2018-04-25T04:42:57.812Z,91.49
2018-04-25T04:43:57.706Z,91.87
2018-04-25T04:45:50.666Z,91.68
2018-04-25T04:46:50.553Z,89.38
2018-04-25T04:48:43.304Z,90.63
2018-04-25T04:49:43.214Z,89.38
2018-04-25T04:51:35.979Z,92.06
2018-04-25T04:52:35.865Z,92.25
2018-04-25T04:54:28.599Z,94.31
2018-04-25T04:55:28.543Z,93.64
2018-04-25T04:57:21.265Z,93.54
2018-04-25T04:58:21.156Z,93.59
2018-04-25T05:00:13.990Z,92.92
2018-04-25T05:01:13.898Z,92.16
2018-04-25T05:03:07.359Z,92.63
2018-04-25T05:04:07.274Z,92.25
2018-04-25T05:06:00.110Z,91.77
2018-04-25T05:07:00.027Z,91.58
2018-04-25T05:08:52.889Z,92.73
2018-04-25T05:09:52.755Z,93.79
2018-04-25T05:11:46.106Z,92.92
2018-04-25T05:12:45.615Z,92.83
2018-04-25T05:14:38.583Z,90.15
2018-04-25T05:15:38.460Z,88.71
2018-04-25T05:17:31.238Z,89.76
2018-04-25T05:18:31.114Z,89.38
2018-04-25T05:20:23.957Z,90.91
2018-04-25T05:21:23.861Z,88.90
2018-04-25T05:23:16.630Z,89.67
2018-04-25T05:24:16.557Z,88.71
2018-04-25T05:26:09.346Z,90.34
2018-04-25T05:27:09.257Z,89.58
2018-04-25T05:29:02.120Z,91.68
2018-04-25T05:30:02.013Z,91.68
2018-04-25T05:31:54.922Z,88.90
2018-04-25T05:32:54.752Z,89.48
2018-04-25T05:34:47.516Z,89.38
2018-04-25T05:35:47.402Z,89.19
2018-04-25T05:37:40.145Z,89.29
2018-04-25T05:38:40.104Z,90.15
2018-04-25T05:40:32.922Z,89.58
2018-04-25T05:41:32.812Z,90.24
2018-04-25T05:43:25.671Z,88.52
2018-04-25T05:44:25.556Z,88.33
2018-04-25T05:46:18.324Z,88.43
2018-04-25T05:47:18.198Z,89.19
2018-04-25T05:49:11.053Z,88.71
2018-04-25T05:50:10.963Z,87.56
2018-04-25T05:52:03.825Z,87.56
2018-04-25T05:53:03.709Z,88.52
2018-04-25T05:54:56.545Z,89.00
2018-04-25T05:55:56.451Z,88.43
2018-04-25T05:57:49.290Z,88.71
2018-04-25T05:58:49.089Z,86.51
2018-04-25T06:00:41.947Z,88.52
2018-04-25T06:01:41.760Z,88.52
2018-04-25T06:03:34.631Z,88.23
2018-04-25T06:04:34.492Z,89.19
2018-04-25T06:06:27.843Z,90.34
2018-04-25T06:07:27.750Z,90.72
2018-04-25T06:09:20.643Z,92.06
2018-04-25T06:10:20.502Z,91.87
2018-04-25T06:12:13.366Z,90.82
2018-04-25T06:13:13.274Z,89.33
2018-04-25T06:15:06.021Z,90.44
2018-04-25T06:16:05.900Z,91.92
2018-04-25T06:17:58.734Z,91.68
2018-04-25T06:18:58.649Z,91.39
2018-04-25T06:20:51.435Z,91.11
2018-04-25T06:21:51.306Z,90.58
2018-04-25T06:23:44.039Z,91.77
2018-04-25T06:24:43.941Z,90.96
2018-04-25T06:26:37.823Z,91.44
2018-04-25T06:27:37.611Z,93.16
2018-04-25T06:29:30.374Z,92.40
2018-04-25T06:30:30.259Z,90.77
2018-04-25T06:32:23.049Z,91.72
2018-04-25T06:33:22.931Z,91.25
2018-04-25T06:35:15.751Z,94.40
2018-04-25T06:36:15.663Z,88.76
2018-04-25T06:38:09.033Z,92.11
2018-04-25T06:39:08.820Z,90.77
2018-04-25T06:41:01.681Z,91.58
2018-04-25T06:42:01.580Z,90.48
2018-04-25T06:43:54.437Z,91.44
2018-04-25T06:44:54.312Z,91.82
2018-04-25T06:46:47.062Z,92.68
2018-04-25T06:47:46.982Z,91.15
2018-04-25T06:49:39.812Z,90.09
2018-04-25T06:50:39.725Z,92.78
2018-04-25T06:52:32.451Z,88.95
2018-04-25T06:53:32.355Z,92.68
2018-04-25T06:55:25.123Z,92.78
2018-04-25T06:56:26.084Z,92.49
2018-04-25T06:58:17.849Z,90.39
2018-04-25T06:59:17.758Z,93.83
2018-04-25T07:01:10.532Z,92.40
2018-04-25T07:02:10.415Z,92.68
2018-04-25T07:04:03.245Z,93.07
2018-04-25T07:05:03.148Z,91.05
2018-04-25T07:06:56.008Z,92.58
2018-04-25T07:07:55.924Z,92.21
2018-04-25T07:09:48.750Z,91.15
2018-04-25T07:10:48.650Z,93.69
2018-04-25T07:12:41.553Z,92.01
2018-04-25T07:13:41.397Z,93.83
2018-04-25T07:15:34.240Z,93.93
2018-04-25T07:16:34.155Z,92.97
2018-04-25T07:18:27.029Z,94.55
2018-04-25T07:19:26.976Z,93.78
2018-04-25T07:21:19.761Z,95.56
2018-04-25T07:22:19.661Z,96.18
2018-04-25T07:24:12.557Z,95.60
2018-04-25T07:25:12.406Z,96.08
2018-04-25T07:27:05.146Z,98.10
2018-04-25T07:28:05.064Z,96.84
2018-04-25T07:29:57.908Z,98.28
2018-04-25T07:30:57.805Z,98.57
2018-04-25T07:32:50.639Z,99.15
2018-04-25T07:33:50.548Z,99.99
2018-04-25T07:35:43.412Z,99.99
2018-04-25T07:36:43.309Z,99.99
2018-04-25T07:38:36.176Z,93.93
2018-04-25T07:39:36.045Z,99.99
2018-04-25T07:41:28.895Z,99.99
2018-04-25T07:42:28.801Z,99.99
2018-04-25T07:44:21.634Z,99.99
2018-04-25T07:45:21.560Z,99.99
2018-04-25T07:47:14.913Z,99.99
2018-04-25T07:48:14.820Z,99.99
2018-04-25T07:50:08.067Z,99.87
2018-04-25T07:51:07.973Z,99.10
2018-04-25T07:53:00.824Z,98.86
2018-04-25T07:54:00.716Z,98.47
2018-04-25T07:55:53.483Z,98.86
2018-04-25T07:56:53.373Z,97.52
2018-04-25T07:58:46.218Z,99.68
2018-04-25T07:59:46.113Z,99.77
2018-04-25T08:01:38.973Z,99.99
2018-04-25T08:02:38.864Z,98.14
2018-04-25T08:04:31.698Z,99.99
2018-04-25T08:05:31.616Z,99.99
2018-04-25T08:07:24.484Z,99.99
2018-04-25T08:08:24.375Z,99.99
2018-04-25T08:10:17.208Z,99.99
2018-04-25T08:11:17.136Z,99.99
2018-04-25T08:13:09.975Z,99.99
2018-04-25T08:14:09.855Z,99.99
2018-04-25T08:16:02.697Z,99.99
2018-04-25T08:17:02.621Z,99.99
2018-04-25T08:18:55.477Z,99.99
2018-04-25T08:19:55.352Z,99.99
2018-04-25T08:21:48.205Z,99.99
2018-04-25T08:22:48.114Z,99.99
2018-04-25T08:24:40.968Z,99.99
2018-04-25T08:25:40.885Z,99.99
2018-04-25T08:27:33.597Z,99.99
2018-04-25T08:28:33.521Z,99.99
2018-04-25T08:30:26.364Z,99.99
2018-04-25T08:31:26.269Z,99.99
2018-04-25T08:33:19.133Z,98.28
2018-04-25T08:34:19.061Z,99.99
2018-04-25T08:36:11.858Z,99.15
2018-04-25T08:37:11.792Z,91.96
2018-04-25T08:39:04.630Z,98.57
2018-04-25T08:40:04.505Z,98.28
2018-04-25T08:41:57.256Z,96.70
2018-04-25T08:42:57.154Z,95.75
2018-04-25T08:44:50.078Z,90.57
2018-04-25T08:45:49.913Z,94.59
2018-04-25T08:47:42.778Z,92.44
2018-04-25T08:48:42.658Z,87.94
2018-04-25T08:50:35.527Z,85.83
2018-04-25T08:51:35.418Z,85.74
2018-04-25T08:53:28.162Z,77.78
2018-04-25T08:54:28.049Z,81.29
2018-04-25T08:56:20.898Z,73.63
2018-04-25T08:57:20.813Z,73.54
2018-04-25T08:59:14.161Z,70.47
2018-04-25T09:00:13.961Z,65.68
2018-04-25T09:02:07.218Z,56.97
2018-04-25T09:03:07.117Z,46.70
2018-04-25T09:04:59.886Z,36.65
2018-04-25T09:05:59.789Z,25.55
2018-04-25T09:07:52.604Z,13.77
2018-04-25T09:08:52.508Z,4.88
2018-04-25T09:10:45.285Z,5.54
2018-04-25T09:11:45.155Z,0.00
2018-04-25T09:13:37.914Z,0.00
2018-04-25T09:14:37.816Z,11.00
2018-04-25T09:16:30.803Z,22.39
2018-04-25T09:17:30.556Z,22.11
2018-04-25T09:19:23.291Z,18.18
2018-04-25T09:20:23.236Z,19.13
2018-04-25T09:22:16.111Z,13.78
2018-04-25T09:23:15.950Z,16.36
2018-04-25T09:25:08.691Z,17.80
2018-04-25T09:26:08.609Z,27.26
2018-04-25T09:28:01.453Z,9.47
2018-04-25T09:29:01.373Z,9.19
2018-04-25T09:30:54.127Z,22.86
2018-04-25T09:31:53.995Z,40.19
2018-04-25T09:33:46.756Z,25.65
2018-04-25T09:34:46.646Z,29.86
2018-04-25T09:36:39.914Z,31.48
2018-04-25T09:37:39.812Z,36.36
2018-04-25T09:39:32.589Z,35.24
2018-04-25T09:40:32.500Z,32.55
2018-04-25T09:42:25.212Z,37.43
2018-04-25T09:43:25.117Z,43.08
2018-04-25T09:45:17.980Z,52.83
2018-04-25T09:46:17.856Z,45.36
2018-04-25T09:48:10.690Z,40.78
2018-04-25T09:49:10.594Z,49.66
2018-04-25T09:51:03.347Z,40.00
2018-04-25T09:52:03.236Z,50.72
2018-04-25T09:53:56.009Z,41.44
2018-04-25T09:54:55.891Z,42.40
2018-04-25T09:56:48.727Z,44.21
2018-04-25T09:57:48.741Z,45.45
2018-04-25T09:59:41.399Z,42.70
2018-04-25T10:00:41.304Z,42.70
2018-04-25T10:02:34.140Z,52.28
2018-04-25T10:03:34.034Z,42.41
2018-04-25T10:05:27.311Z,51.42
2018-04-25T10:06:27.200Z,56.20
2018-04-25T10:08:20.039Z,51.32
2018-04-25T10:09:19.948Z,54.00
2018-04-25T10:11:12.700Z,56.17
2018-04-25T10:12:12.592Z,50.05
2018-04-25T10:14:05.445Z,49.00
2018-04-25T10:15:05.337Z,47.85
2018-04-25T10:16:58.099Z,30.05
2018-04-25T10:17:58.007Z,36.27
2018-04-25T10:19:50.761Z,37.99
2018-04-25T10:20:50.690Z,35.12
2018-04-25T10:22:43.436Z,46.89
2018-04-25T10:23:43.293Z,46.41
2018-04-25T10:25:36.173Z,42.97
2018-04-25T10:26:36.057Z,46.25
2018-04-25T10:28:28.885Z,53.88
2018-04-25T10:29:28.779Z,54.86
2018-04-25T10:31:21.535Z,60.89
2018-04-25T10:32:21.491Z,58.69
2018-04-25T10:34:14.221Z,59.87
2018-04-25T10:35:14.077Z,66.96
2018-04-25T10:37:06.923Z,69.26
2018-04-25T10:38:06.823Z,67.44
2018-04-25T10:39:59.714Z,73.66
2018-04-25T10:40:59.578Z,69.93
2018-04-25T10:42:52.437Z,81.85
2018-04-25T10:43:52.387Z,75.58
2018-04-25T10:45:45.281Z,83.95
2018-04-25T10:46:45.184Z,79.89
2018-04-25T10:48:38.028Z,83.44
2018-04-25T10:49:37.943Z,77.50
2018-04-25T10:51:30.804Z,82.14
2018-04-25T10:52:30.696Z,86.69
2018-04-25T10:54:23.574Z,88.65
2018-04-25T10:55:23.458Z,87.64
2018-04-25T10:57:16.259Z,85.97
2018-04-25T10:58:16.188Z,92.63
2018-04-25T11:00:08.953Z,89.51
2018-04-25T11:01:08.860Z,90.04
2018-04-25T11:03:01.655Z,90.00
2018-04-25T11:04:01.582Z,86.45
2018-04-25T11:05:54.430Z,78.97
2018-04-25T11:06:54.331Z,75.52
2018-04-25T11:08:47.166Z,86.36
2018-04-25T11:09:47.072Z,76.79
2018-04-25T11:11:39.929Z,81.96
2018-04-25T11:12:39.824Z,76.84
2018-04-25T11:14:32.677Z,85.41
2018-04-25T11:15:32.570Z,69.06
2018-04-25T11:17:25.434Z,68.87
2018-04-25T11:18:25.322Z,61.41
2018-04-25T11:20:18.179Z,64.15
2018-04-25T11:21:18.079Z,65.77
2018-04-25T11:23:10.828Z,59.75
2018-04-25T11:24:10.723Z,63.76
2018-04-25T11:26:03.601Z,59.94
2018-04-25T11:27:03.477Z,63.10
2018-04-25T11:28:56.325Z,57.07
2018-04-25T11:29:56.224Z,59.88
2018-04-25T11:31:49.090Z,66.47
2018-04-25T11:32:48.960Z,58.18
2018-04-25T11:34:41.702Z,69.00
2018-04-25T11:35:41.629Z,71.97
2018-04-25T11:37:34.365Z,71.04
2018-04-25T11:38:34.270Z,82.82
2018-04-25T11:40:27.106Z,87.51
2018-04-25T11:41:27.005Z,83.78
2018-04-25T11:43:19.771Z,80.33
2018-04-25T11:44:19.667Z,90.48
2018-04-25T11:46:12.565Z,86.88
2018-04-25T11:47:12.532Z,87.94
2018-04-25T11:49:05.286Z,88.61
2018-04-25T11:50:05.157Z,90.86
2018-04-25T11:51:58.508Z,94.07
2018-04-25T11:52:58.418Z,95.41
2018-04-25T11:54:51.296Z,95.03
2018-04-25T11:55:51.201Z,93.64
2018-04-25T11:57:44.425Z,88.76
2018-04-25T11:58:44.326Z,89.90
2018-04-25T12:00:37.177Z,92.68
2018-04-25T12:01:37.087Z,88.28
2018-04-25T12:03:30.039Z,95.22
2018-04-25T12:04:29.824Z,97.61
2018-04-25T12:06:22.669Z,91.77
2018-04-25T12:07:22.617Z,92.54
2018-04-25T12:09:15.315Z,90.10
2018-04-25T12:10:15.291Z,87.62
2018-04-25T12:12:08.097Z,73.27
2018-04-25T12:13:07.993Z,69.54
2018-04-25T12:15:00.832Z,83.22
2018-04-25T12:16:00.738Z,77.82
2018-04-25T12:17:53.573Z,70.84
2018-04-25T12:18:53.467Z,74.95
2018-04-25T12:20:46.348Z,67.97
2018-04-25T12:21:46.215Z,70.07
2018-04-25T12:23:39.065Z,59.94
2018-04-25T12:24:38.967Z,68.74
2018-04-25T12:26:31.825Z,56.85
2018-04-25T12:27:31.728Z,52.08
2018-04-25T12:29:24.584Z,45.20
2018-04-25T12:30:24.463Z,58.19
2018-04-25T12:32:17.331Z,52.08
2018-04-25T12:33:17.221Z,56.18
2018-04-25T12:35:09.971Z,59.56
2018-04-25T12:36:09.877Z,55.45
2018-04-25T12:38:02.729Z,66.16
2018-04-25T12:39:02.632Z,63.67
2018-04-25T12:40:55.359Z,69.41
2018-04-25T12:41:55.281Z,66.44
2018-04-25T12:43:48.107Z,67.11
2018-04-25T12:44:48.013Z,65.30
2018-04-25T12:46:40.861Z,69.60
2018-04-25T12:47:40.780Z,66.83
2018-04-25T12:49:33.833Z,67.97
2018-04-25T12:50:33.410Z,66.35
2018-04-25T12:52:26.153Z,70.56
2018-04-25T12:53:26.056Z,66.47
2018-04-25T12:55:18.843Z,70.21
2018-04-25T12:56:18.734Z,77.48
2018-04-25T12:58:11.481Z,85.65
2018-04-25T12:59:11.375Z,85.08
2018-04-25T13:01:04.287Z,92.30
2018-04-25T13:02:04.128Z,90.67
2018-04-25T13:03:56.963Z,93.69
2018-04-25T13:04:56.873Z,92.73
2018-04-25T13:06:49.695Z,91.44
2018-04-25T13:07:49.604Z,91.92
2018-04-25T13:09:42.867Z,94.12
2018-04-25T13:10:42.771Z,95.65
2018-04-25T13:12:35.512Z,99.99
2018-04-25T13:13:35.406Z,99.99
2018-04-25T13:15:28.178Z,99.99
2018-04-25T13:16:28.057Z,99.99
2018-04-25T13:18:20.889Z,99.99
2018-04-25T13:19:20.801Z,98.38
2018-04-25T13:21:13.581Z,96.18
2018-04-25T13:22:13.475Z,99.96
2018-04-25T13:24:06.313Z,95.75
2018-04-25T13:25:06.222Z,96.61
2018-04-25T13:26:59.068Z,95.56
2018-04-25T13:27:58.970Z,98.24
2018-04-25T13:29:51.684Z,99.19
2018-04-25T13:30:51.636Z,99.99
2018-04-25T13:32:44.481Z,99.76
2018-04-25T13:33:44.342Z,99.86
2018-04-25T13:35:37.232Z,99.99
2018-04-25T13:36:37.123Z,98.95
2018-04-25T13:38:29.886Z,97.33
2018-04-25T13:39:29.749Z,98.52
2018-04-25T13:41:22.705Z,98.61
2018-04-25T13:42:22.414Z,99.96
2018-04-25T13:44:15.263Z,99.99
2018-04-25T13:45:15.139Z,99.99
2018-04-25T13:47:07.912Z,99.99
2018-04-25T13:48:07.807Z,99.99
2018-04-25T13:50:00.644Z,99.99
2018-04-25T13:51:00.543Z,99.99
2018-04-25T13:52:53.419Z,99.99
2018-04-25T13:53:53.182Z,99.99
2018-04-25T13:55:46.022Z,99.99
2018-04-25T13:56:45.924Z,99.99
2018-04-25T13:58:38.700Z,98.24
2018-04-25T13:59:38.631Z,98.72
2018-04-25T14:01:31.347Z,99.99
2018-04-25T14:02:31.221Z,97.42
2018-04-25T14:04:23.976Z,99.99
2018-04-25T14:05:23.901Z,99.99
2018-04-25T14:07:16.614Z,99.99
2018-04-25T14:08:16.534Z,99.99
2018-04-25T14:10:09.274Z,99.99
2018-04-25T14:11:09.186Z,99.99
2018-04-25T14:13:02.083Z,99.99
2018-04-25T14:14:01.917Z,99.99
2018-04-25T14:15:54.809Z,99.99
2018-04-25T14:16:54.701Z,99.99
2018-04-25T14:18:47.543Z,99.99
2018-04-25T14:19:47.415Z,99.99
2018-04-25T14:21:40.277Z,99.99
2018-04-25T14:22:40.175Z,99.99
2018-04-25T14:24:33.075Z,99.99
2018-04-25T14:25:32.932Z,99.99
2018-04-25T14:27:25.749Z,99.99
2018-04-25T14:28:25.680Z,99.99
2018-04-25T14:30:18.562Z,99.99
2018-04-25T14:31:18.425Z,99.99
2018-04-25T14:33:11.296Z,99.99
2018-04-25T14:34:11.165Z,99.99
2018-04-25T14:36:04.034Z,99.99
2018-04-25T14:37:03.910Z,99.99
2018-04-25T14:38:57.768Z,99.99
2018-04-25T14:39:56.673Z,99.99
2018-04-25T14:41:49.623Z,99.99
2018-04-25T14:42:49.507Z,99.99
2018-04-25T14:44:42.355Z,99.99
2018-04-25T14:45:42.264Z,99.99
2018-04-25T14:47:35.131Z,99.99
2018-04-25T14:48:35.010Z,99.99
2018-04-25T14:50:27.850Z,99.99
2018-04-25T14:51:27.769Z,99.99
2018-04-25T14:53:20.620Z,98.57
2018-04-25T14:54:20.510Z,92.44
2018-04-25T14:56:13.379Z,90.61
2018-04-25T14:57:13.326Z,86.01
2018-04-25T14:59:06.165Z,80.30
2018-04-25T15:00:06.023Z,78.15
2018-04-25T15:01:58.876Z,79.72
2018-04-25T15:02:58.757Z,74.79
2018-04-25T15:04:51.603Z,79.39
2018-04-25T15:05:51.504Z,82.96
2018-04-25T15:07:44.375Z,84.30
2018-04-25T15:08:44.268Z,87.17
2018-04-25T15:10:37.014Z,83.52
2018-04-25T15:11:36.908Z,83.08
2018-04-25T15:13:29.758Z,70.55
2018-04-25T15:14:29.658Z,71.31
2018-04-25T15:16:22.494Z,74.54
2018-04-25T15:17:22.416Z,82.18
2018-04-25T15:19:15.311Z,92.82
2018-04-25T15:20:15.238Z,95.70
2018-04-25T15:22:08.031Z,81.89
2018-04-25T15:23:07.953Z,81.02
2018-04-25T15:25:00.989Z,80.49
2018-04-25T15:26:00.925Z,77.90
2018-04-25T15:27:53.715Z,73.45
2018-04-25T15:28:53.610Z,73.20
2018-04-25T15:30:48.027Z,80.70
2018-04-25T15:31:47.903Z,83.25
2018-04-25T15:33:40.772Z,90.91
2018-04-25T15:34:40.654Z,91.29
2018-04-25T15:36:34.037Z,82.29
2018-04-25T15:37:33.923Z,76.96
2018-04-25T15:39:26.856Z,73.09
2018-04-25T15:40:26.658Z,71.66
2018-04-25T15:42:19.523Z,68.05
2018-04-25T15:43:19.403Z,64.09
2018-04-25T15:45:12.272Z,61.40
2018-04-25T15:46:12.165Z,62.33
2018-04-25T15:48:05.524Z,65.65
2018-04-25T15:49:05.446Z,66.93
2018-04-25T15:50:58.286Z,66.06
2018-04-25T15:51:58.229Z,68.56
2018-04-25T15:53:51.120Z,72.63
2018-04-25T15:54:51.023Z,68.12
2018-04-25T15:56:44.902Z,66.77
2018-04-25T15:57:43.888Z,66.03
2018-04-25T15:59:36.812Z,72.17
2018-04-25T16:00:36.772Z,75.87
2018-04-25T16:02:29.582Z,71.34
2018-04-25T16:03:29.523Z,67.19
2018-04-25T16:05:22.315Z,72.03
2018-04-25T16:06:22.219Z,74.87
2018-04-25T16:08:15.086Z,76.92
2018-04-25T16:09:14.968Z,73.80
2018-04-25T16:11:08.157Z,71.63
2018-04-25T16:12:07.914Z,64.76
2018-04-25T16:14:00.703Z,61.58
2018-04-25T16:15:00.706Z,59.38
2018-04-25T16:16:54.000Z,58.35
2018-04-25T16:17:53.884Z,56.88
2018-04-25T16:19:46.735Z,55.38
2018-04-25T16:20:46.776Z,58.62
2018-04-25T16:22:39.571Z,60.89
2018-04-25T16:23:39.360Z,63.80
2018-04-25T16:25:32.411Z,72.73
2018-04-25T16:26:32.103Z,75.60
2018-04-25T16:28:25.022Z,75.79
2018-04-25T16:29:24.864Z,76.65
2018-04-25T16:31:17.724Z,82.49
2018-04-25T16:32:17.578Z,82.35
2018-04-25T16:34:10.954Z,92.11
2018-04-25T16:35:10.865Z,95.94
2018-04-25T16:37:04.734Z,99.99
2018-04-25T16:38:04.655Z,99.99
2018-04-25T16:39:57.855Z,99.99
2018-04-25T16:40:57.701Z,99.99
2018-04-25T16:42:50.547Z,99.99
2018-04-25T16:43:50.681Z,99.99
2018-04-25T16:45:44.317Z,99.99
2018-04-25T16:46:43.275Z,99.99
2018-04-25T16:48:36.119Z,99.99
2018-04-25T16:49:36.030Z,99.99
2018-04-25T16:51:28.904Z,99.99
2018-04-25T16:52:28.812Z,99.99
2018-04-25T16:54:21.970Z,99.99
2018-04-25T16:55:21.563Z,99.99
2018-04-25T16:57:15.905Z,99.99
2018-04-25T16:58:15.325Z,99.99
2018-04-25T17:00:08.781Z,99.99
2018-04-25T17:01:08.560Z,99.99
2018-04-25T17:03:01.619Z,99.63
2018-04-25T17:04:01.526Z,98.62
2018-04-25T17:05:54.877Z,92.54
2018-04-25T17:06:54.791Z,90.56
2018-04-25T17:08:47.832Z,97.66
2018-04-25T17:09:47.632Z,99.99
2018-04-25T17:11:42.014Z,99.99
2018-04-25T17:12:41.914Z,99.99
2018-04-25T17:14:34.896Z,99.99
2018-04-25T17:15:34.773Z,99.99
2018-04-25T17:17:28.140Z,99.99
2018-04-25T17:18:27.655Z,99.99
2018-04-25T17:20:21.910Z,99.99
2018-04-25T17:21:21.804Z,99.99
2018-04-25T17:23:14.663Z,99.99
2018-04-25T17:24:14.558Z,99.76
2018-04-25T17:26:07.405Z,99.99
2018-04-25T17:27:07.331Z,99.99
2018-04-25T17:29:00.153Z,99.99
2018-04-25T17:30:00.066Z,99.99
2018-04-25T17:31:52.943Z,99.99
2018-04-25T17:32:52.817Z,99.99
2018-04-25T17:34:46.185Z,99.99
2018-04-25T17:35:45.558Z,99.99
2018-04-25T17:37:38.419Z,99.99
2018-04-25T17:38:38.344Z,99.33
2018-04-25T17:40:31.179Z,96.99
2018-04-25T17:41:31.048Z,95.94
2018-04-25T17:43:23.893Z,94.89
2018-04-25T17:44:23.795Z,95.32
2018-04-25T17:46:16.664Z,93.98
2018-04-25T17:47:16.567Z,94.07
2018-04-25T17:49:09.412Z,92.45
2018-04-25T17:50:09.296Z,93.12
2018-04-25T17:52:02.157Z,91.40
2018-04-25T17:53:02.092Z,90.45
2018-04-25T17:54:54.806Z,91.11
2018-04-25T17:55:54.721Z,90.50
2018-04-25T17:57:47.456Z,89.16
2018-04-25T17:58:47.409Z,87.06
2018-04-25T18:00:40.171Z,87.44
2018-04-25T18:01:39.993Z,88.11
2018-04-25T18:03:33.260Z,86.10
2018-04-25T18:04:33.145Z,86.49
2018-04-25T18:06:26.019Z,85.82
2018-04-25T18:07:25.903Z,85.53
2018-04-25T18:09:18.661Z,84.96
2018-04-25T18:10:18.557Z,84.10
2018-04-25T18:12:11.332Z,85.21
2018-04-25T18:13:11.205Z,86.30
2018-04-25T18:15:04.031Z,90.55
2018-04-25T18:16:03.828Z,91.78
2018-04-25T18:17:56.597Z,91.31
2018-04-25T18:18:56.487Z,89.73
2018-04-25T18:20:49.224Z,88.83
2018-04-25T18:21:49.131Z,89.78
2018-04-25T18:23:41.894Z,93.02
2018-04-25T18:24:41.792Z,96.66
2018-04-25T18:26:34.522Z,98.27
2018-04-25T18:27:34.423Z,99.99
2018-04-25T18:29:27.433Z,99.61
2018-04-25T18:30:27.251Z,99.99
2018-04-25T18:32:20.061Z,99.99
2018-04-25T18:33:19.940Z,99.99
2018-04-25T18:35:12.696Z,99.99